Time;durP1;ratioP1;P1;durP2;ratioP2;P2;SDS_P1;SDS_P2;PMS_P1;PMS_P2;Temp;Humidity;BMP_temperature;BMP_pressure;BME280_temperature;BME280_humidity;BME280_pressure;Samples;Min_cycle;Max_cycle;Signal;HPM_P1;HPM_P2
2023/09/29 00:04:32;;;;;;;0.30;0.10;;;;;;;21.27;100.00;101541.09;10323164;28;20054;-78
2023/09/29 00:09:34;;;;;;;0.20;0.15;;;;;;;21.23;100.00;101535.91;10315044;28;20128;-78
2023/09/29 00:14:35;;;;;;;0.82;0.52;;;;;;;21.61;100.00;101535.59;10317058;28;20482;-78
2023/09/29 00:19:37;;;;;;;0.15;0.10;;;;;;;21.59;100.00;101526.88;10324806;28;20478;-78
2023/09/29 00:24:39;;;;;;;3.05;0.63;;;;;;;21.63;100.00;101518.09;10321472;28;20046;-78
2023/09/29 00:29:42;;;;;;;0.75;0.52;;;;;;;21.63;100.00;101512.84;10330713;28;20046;-78
2023/09/29 00:34:44;;;;;;;0.00;0.00;;;;;;;21.75;100.00;101512.72;10346565;28;20053;-78
2023/09/29 00:39:47;;;;;;;0.38;0.32;;;;;;;21.46;100.00;101506.00;10326033;28;20506;-78
2023/09/29 00:44:48;;;;;;;0.57;0.40;;;;;;;21.56;100.00;101506.75;10314258;28;20054;-78
2023/09/29 00:49:51;;;;;;;0.75;0.70;;;;;;;21.91;100.00;101494.19;10325870;28;20074;-78
2023/09/29 00:54:53;;;;;;;0.80;0.50;;;;;;;21.46;100.00;101495.50;10345842;28;20068;-78
2023/09/29 00:59:56;;;;;;;0.47;0.45;;;;;;;21.07;100.00;101487.13;10344150;28;20510;-78
2023/09/29 01:04:58;;;;;;;2.92;1.50;;;;;;;21.50;100.00;101481.47;10344042;28;20482;-78
2023/09/29 01:10:01;;;;;;;0.68;0.47;;;;;;;21.07;100.00;101471.41;10327224;28;20046;-78
2023/09/29 01:15:03;;;;;;;0.85;0.50;;;;;;;21.20;100.00;101467.78;10344330;28;20194;-78
2023/09/29 01:20:12;;;;;;;3.20;0.75;;;;;;;21.17;100.00;101473.06;10358842;28;20057;-78
2023/09/29 01:25:15;;;;;;;0.63;0.63;;;;;;;21.20;100.00;101467.78;10343441;28;20054;-78
2023/09/29 01:30:18;;;;;;;0.77;0.55;;;;;;;21.17;100.00;101470.47;10343225;28;20053;-78
2023/09/29 01:35:27;;;;;;;0.55;0.50;;;;;;;21.53;100.00;101470.09;10342622;28;20125;-78
2023/09/29 01:40:29;;;;;;;0.80;0.67;;;;;;;21.42;100.00;101467.56;10342902;28;20450;-78
2023/09/29 01:45:32;;;;;;;1.90;1.20;;;;;;;21.48;100.00;101472.75;10343607;28;20321;-78
2023/09/29 01:50:34;;;;;;;2.00;1.67;;;;;;;21.42;100.00;101467.56;10359099;28;20038;-78
2023/09/29 01:55:36;;;;;;;2.00;1.05;;;;;;;21.67;100.00;101459.47;10343076;28;20069;-78
2023/09/29 02:00:38;;;;;;;4.43;2.15;;;;;;;21.79;100.00;101461.94;10352924;28;20041;-78
2023/09/29 02:05:40;;;;;;;1.98;0.75;;;;;;;22.01;100.00;101456.44;10320792;28;20043;-78
2023/09/29 02:10:42;;;;;;;0.82;0.70;;;;;;;22.34;100.00;101451.63;10352722;28;20042;-78
2023/09/29 02:15:43;;;;;;;0.80;0.68;;;;;;;22.16;100.00;101450.97;10323657;28;20042;-78
2023/09/29 02:20:48;;;;;;;1.75;0.75;;;;;;;22.07;100.00;101440.63;10327582;28;20137;-78
2023/09/29 02:25:51;;;;;;;0.90;0.75;;;;;;;22.18;100.00;101432.63;10306593;28;20058;-78
2023/09/29 02:30:54;;;;;;;0.85;0.73;;;;;;;22.05;100.00;101428.41;10326576;28;20065;-78
2023/09/29 02:35:56;;;;;;;0.80;0.80;;;;;;;21.86;100.00;101426.03;10331630;28;20463;-78
2023/09/29 02:40:59;;;;;;;1.30;0.60;;;;;;;22.30;100.00;101426.31;10351530;28;20101;-78
2023/09/29 02:46:01;;;;;;;0.22;0.20;;;;;;;22.40;100.00;101417.44;10351909;28;20046;-78
2023/09/29 02:51:03;;;;;;;0.45;0.30;;;;;;;22.30;100.00;101414.06;10335644;28;20091;-78
2023/09/29 02:56:05;;;;;;;0.10;0.10;;;;;;;22.18;100.00;101401.13;10336181;28;20050;-78
2023/09/29 03:01:11;;;;;;;0.20;0.17;;;;;;;22.24;100.00;101411.53;10351529;28;20475;-78
2023/09/29 03:06:20;;;;;;;0.22;0.17;;;;;;;22.25;100.00;101413.25;10319010;28;20054;-78
2023/09/29 03:11:22;;;;;;;0.87;0.47;;;;;;;22.03;100.00;101396.94;10334470;28;20133;-78
2023/09/29 03:16:24;;;;;;;0.32;0.13;;;;;;;22.27;100.00;101407.97;10334084;28;20058;-78
2023/09/29 03:21:26;;;;;;;1.20;0.57;;;;;;;22.05;100.00;101405.66;10350232;28;20053;-78
2023/09/29 03:26:29;;;;;;;0.25;0.25;;;;;;;21.87;100.00;101401.56;10333484;28;20047;-78
2023/09/29 03:31:31;;;;;;;0.80;0.40;;;;;;;21.66;100.00;101393.06;10321074;28;20049;-78
2023/09/29 03:36:33;;;;;;;0.40;0.40;;;;;;;21.85;100.00;101401.56;10332599;28;20049;-78
2023/09/29 03:41:35;;;;;;;0.13;0.13;;;;;;;21.73;100.00;101388.59;10341828;28;20101;-78
2023/09/29 03:46:38;;;;;;;2.03;0.40;;;;;;;21.77;100.00;101390.31;10337854;28;20082;-78
2023/09/29 03:51:40;;;;;;;0.28;0.28;;;;;;;21.67;100.00;101380.81;10331571;28;20042;-78
2023/09/29 03:56:41;;;;;;;0.15;0.10;;;;;;;22.08;100.00;101379.38;10333494;28;20046;-78
2023/09/29 04:01:44;;;;;;;0.70;0.15;;;;;;;22.31;100.00;101370.28;10333501;28;20081;-78
2023/09/29 04:06:46;;;;;;;0.10;0.10;;;;;;;22.10;100.00;101356.63;10334106;28;20046;-78
2023/09/29 04:11:49;;;;;;;0.47;0.40;;;;;;;22.17;100.00;101355.63;10335203;28;20125;-78
2023/09/29 04:16:51;;;;;;;0.32;0.32;;;;;;;21.99;100.00;101337.56;10332949;28;20101;-78
2023/09/29 04:21:52;;;;;;;0.40;0.25;;;;;;;21.89;100.00;101330.69;10347895;28;20038;-78
2023/09/29 04:26:54;;;;;;;0.52;0.08;;;;;;;21.97;100.00;101342.81;10333269;28;20054;-78
2023/09/29 04:31:56;;;;;;;0.20;0.20;;;;;;;21.97;100.00;101339.31;10332728;28;20121;-78
2023/09/29 04:36:57;;;;;;;0.17;0.13;;;;;;;22.42;100.00;101341.28;10332315;28;20050;-77
2023/09/29 04:41:59;;;;;;;0.55;0.32;;;;;;;22.12;100.00;101328.59;10333005;28;20042;-78
2023/09/29 04:47:00;;;;;;;0.25;0.20;;;;;;;22.07;100.00;101327.81;10348326;28;20050;-78
2023/09/29 04:52:03;;;;;;;0.43;0.20;;;;;;;21.92;100.00;101330.66;10332552;28;20047;-78
2023/09/29 04:57:04;;;;;;;0.65;0.40;;;;;;;22.18;100.00;101323.25;10332709;28;20464;-78
2023/09/29 05:02:06;;;;;;;0.57;0.50;;;;;;;22.25;100.00;101310.03;10332348;28;20097;-78
2023/09/29 05:07:08;;;;;;;0.10;0.10;;;;;;;22.26;100.00;101311.75;10334823;28;20090;-78
2023/09/29 05:12:09;;;;;;;0.10;0.10;;;;;;;22.26;100.00;101304.78;10335031;28;20049;-78
2023/09/29 05:17:12;;;;;;;0.52;0.40;;;;;;;22.17;100.00;101300.53;10333378;28;20589;-79
2023/09/29 05:22:13;;;;;;;1.77;0.25;;;;;;;22.33;100.00;101298.53;10334590;28;20049;-78
2023/09/29 05:27:15;;;;;;;0.10;0.10;;;;;;;22.14;100.00;101307.56;10335476;28;20417;-78
2023/09/29 05:32:17;;;;;;;0.10;0.10;;;;;;;22.38;100.00;101306.31;10334951;28;20089;-78
2023/09/29 05:37:18;;;;;;;4.85;0.25;;;;;;;22.55;100.00;101300.81;10341941;28;20409;-78
2023/09/29 05:42:21;;;;;;;0.60;0.45;;;;;;;22.38;100.00;101293.19;10340723;28;20054;-79
2023/09/29 05:47:34;;;;;;;0.32;0.30;;;;;;;22.54;100.00;101290.31;10342891;28;20482;-78
2023/09/29 05:52:35;;;;;;;0.30;0.30;;;;;;;22.23;100.00;101293.47;10324517;28;20046;-77
2023/09/29 05:57:37;;;;;;;0.40;0.25;;;;;;;22.22;100.00;101286.47;10340693;28;20057;-78
2023/09/29 06:02:40;;;;;;;0.38;0.38;;;;;;;22.19;100.00;101283.00;10356119;28;20046;-78
2023/09/29 06:07:42;;;;;;;0.85;0.60;;;;;;;22.41;100.00;101281.81;10355619;28;20158;-78
2023/09/29 06:12:43;;;;;;;4.03;0.60;;;;;;;22.57;100.00;101279.78;10338938;28;20047;-78
2023/09/29 06:17:45;;;;;;;0.80;0.17;;;;;;;22.88;100.00;101281.81;10341069;28;20086;-78
2023/09/29 06:22:47;;;;;;;0.63;0.40;;;;;;;22.74;100.00;101275.09;10338796;28;20042;-78
2023/09/29 06:27:49;;;;;;;0.15;0.15;;;;;;;22.76;100.00;101282.91;10337579;28;20050;-78
2023/09/29 06:32:50;;;;;;;0.20;0.20;;;;;;;22.87;100.00;101280.09;10353733;28;20432;-78
2023/09/29 06:37:52;;;;;;;0.20;0.20;;;;;;;23.22;100.00;101281.16;10337767;28;20576;-77
2023/09/29 06:42:54;;;;;;;0.55;0.35;;;;;;;23.21;100.00;101284.69;10337095;28;20053;-79
2023/09/29 06:47:56;;;;;;;0.90;0.70;;;;;;;23.84;100.00;101292.97;10352492;28;20046;-78
2023/09/29 06:52:57;;;;;;;0.03;0.03;;;;;;;23.72;100.00;101281.81;10352380;28;20076;-78
2023/09/29 06:57:59;;;;;;;1.67;0.82;;;;;;;23.86;100.00;101278.84;10352033;28;20046;-78
2023/09/29 07:03:01;;;;;;;0.10;0.10;;;;;;;23.85;100.00;101276.28;10351689;28;20141;-79
2023/09/29 07:08:03;;;;;;;0.17;0.17;;;;;;;24.06;100.00;101281.03;10350974;28;20038;-78
2023/09/29 07:13:04;;;;;;;0.35;0.20;;;;;;;24.23;100.00;101271.88;10335877;28;20038;-78
2023/09/29 07:18:10;;;;;;;0.32;0.30;;;;;;;24.18;100.00;101290.41;10335543;28;20054;-78
2023/09/29 07:23:12;;;;;;;0.20;0.15;;;;;;;23.82;100.00;101286.84;10319368;28;20046;-78
2023/09/29 07:28:18;;;;;;;0.03;0.03;;;;;;;23.86;100.00;101283.28;10334691;28;20557;-78
2023/09/29 07:33:20;;;;;;;0.30;0.20;;;;;;;23.69;100.00;101300.31;10332953;28;20141;-80
2023/09/29 07:38:22;;;;;;;0.47;0.43;;;;;;;23.91;100.00;101302.44;10310251;28;20054;-79
2023/09/29 07:43:24;;;;;;;2.08;0.38;;;;;;;23.99;100.00;101300.53;10334384;28;20068;-80
2023/09/29 07:48:27;;;;;;;0.20;0.20;;;;;;;24.19;100.00;101307.06;10334042;28;20057;-77
2023/09/29 07:53:29;;;;;;;0.10;0.10;;;;;;;24.36;100.00;101310.16;10318118;28;20052;-79
2023/09/29 07:58:31;;;;;;;0.30;0.20;;;;;;;24.01;100.00;101309.25;10332997;28;20046;-79
2023/09/29 08:03:33;;;;;;;0.00;0.00;;;;;;;24.37;100.00;101311.88;10349132;28;20042;-78
2023/09/29 08:08:37;;;;;;;0.40;0.40;;;;;;;24.11;100.00;101309.00;10347658;28;20046;-78
2023/09/29 08:13:39;;;;;;;0.30;0.20;;;;;;;24.45;100.00;101302.91;10333355;28;20047;-79
2023/09/29 08:18:41;;;;;;;2.00;0.75;;;;;;;24.75;100.00;101310.94;10348891;28;20056;-78
2023/09/29 08:23:43;;;;;;;0.22;0.20;;;;;;;24.96;100.00;101312.09;10332604;28;20053;-78
2023/09/29 08:28:44;;;;;;;0.57;0.57;;;;;;;25.86;100.00;101315.63;10333589;28;20046;-80
2023/09/29 08:33:46;;;;;;;0.50;0.30;;;;;;;25.63;100.00;101311.94;10348500;28;20053;-78
2023/09/29 08:38:52;;;;;;;0.30;0.22;;;;;;;25.49;100.00;101319.41;10311182;28;20532;-78
2023/09/29 08:43:54;;;;;;;0.28;0.28;;;;;;;25.52;100.00;101323.72;10324055;28;20057;-77
2023/09/29 08:49:33;;;;;;;0.68;0.32;;;;;;;25.58;100.00;101321.75;10343437;28;20046;-78
2023/09/29 08:54:38;;;;;;;0.45;0.10;;;;;;;25.58;100.00;101319.13;10332405;28;20047;-78
2023/09/29 08:59:41;;;;;;;0.35;0.22;;;;;;;25.83;100.00;101328.91;10327028;28;20092;-77
2023/09/29 09:04:44;;;;;;;0.47;0.30;;;;;;;25.52;100.00;101335.13;10325209;28;20053;-78
2023/09/29 09:09:54;;;;;;;0.50;0.32;;;;;;;25.90;100.00;101330.44;10322407;28;20057;-77
2023/09/29 09:14:56;;;;;;;0.32;0.32;;;;;;;25.76;100.00;101332.66;10326617;28;20058;-78
2023/09/29 09:19:58;;;;;;;0.13;0.10;;;;;;;25.94;100.00;101334.75;10313766;28;20510;-78
2023/09/29 09:25:04;;;;;;;0.15;0.15;;;;;;;26.68;100.00;101334.06;10322827;28;20050;-77
2023/09/29 09:30:18;;;;;;;0.68;0.68;;;;;;;26.32;100.00;101341.50;10349882;28;20142;-77
2023/09/29 09:35:27;;;;;;;0.30;0.20;;;;;;;27.02;100.00;101342.63;10320977;28;20038;-78
2023/09/29 09:40:31;;;;;;;0.32;0.13;;;;;;;27.15;100.00;101354.47;10341863;28;20046;-79
2023/09/29 09:45:39;;;;;;;0.20;0.20;;;;;;;27.23;100.00;101352.41;10321592;28;20053;-78
2023/09/29 09:50:47;;;;;;;0.20;0.10;;;;;;;27.00;100.00;101361.19;10332817;28;20046;-77
2023/09/29 09:56:10;;;;;;;0.10;0.10;;;;;;;26.91;100.00;101366.78;10317725;28;20461;-77
2023/09/29 10:01:12;;;;;;;0.13;0.13;;;;;;;26.54;100.00;101368.91;10337146;28;20383;-78
2023/09/29 10:06:14;;;;;;;0.22;0.00;;;;;;;26.00;100.00;101372.41;10337076;28;20045;-78
2023/09/29 10:11:16;;;;;;;1.00;0.08;;;;;;;26.75;100.00;101371.72;10340564;28;20516;-77
2023/09/29 10:16:24;;;;;;;0.15;0.15;;;;;;;27.11;100.00;101371.38;10336895;28;20100;-78
2023/09/29 10:21:33;;;;;;;0.30;0.30;;;;;;;26.71;100.00;101376.25;10350894;28;20065;-79
2023/09/29 10:26:48;;;;;;;0.50;0.30;;;;;;;27.01;100.00;101372.59;10352474;28;20050;-77
2023/09/29 10:31:50;;;;;;;2.08;0.10;;;;;;;27.08;100.00;101375.00;10335650;28;20073;-78
2023/09/29 10:36:54;;;;;;;0.05;0.05;;;;;;;27.74;100.00;101383.19;10319767;28;20050;-78
2023/09/29 10:42:12;;;;;;;2.80;0.65;;;;;;;28.36;100.00;101378.97;10335599;28;20050;-78
2023/09/29 10:47:16;;;;;;;0.10;0.10;;;;;;;27.46;100.00;101379.81;10351181;28;20449;-77
2023/09/29 10:52:24;;;;;;;0.00;0.00;;;;;;;27.21;100.00;101388.66;10346679;28;20122;-78
2023/09/29 10:57:28;;;;;;;0.47;0.47;;;;;;;28.20;100.00;101392.00;10328680;28;20137;-77
2023/09/29 11:02:32;;;;;;;0.00;0.00;;;;;;;27.53;100.00;101391.88;10334912;28;20047;-78
2023/09/29 11:07:50;;;;;;;0.57;0.30;;;;;;;27.56;100.00;101401.50;10335348;28;20478;-78
2023/09/29 11:12:52;;;;;;;0.35;0.20;;;;;;;27.20;100.00;101408.06;10335209;28;20073;-78
2023/09/29 11:17:53;;;;;;;0.40;0.22;;;;;;;27.17;100.00;101416.09;10334775;28;20137;-77
2023/09/29 11:23:00;;;;;;;0.80;0.30;;;;;;;26.91;100.00;101427.59;10326431;28;20104;-79
2023/09/29 11:28:03;;;;;;;0.00;0.00;;;;;;;27.33;100.00;101426.97;10333882;28;20042;-78
2023/09/29 11:33:04;;;;;;;0.10;0.10;;;;;;;26.77;100.00;101436.00;10335015;28;20050;-78
2023/09/29 11:38:06;;;;;;;0.10;0.10;;;;;;;26.38;100.00;101436.38;10333937;28;20467;-78
2023/09/29 11:43:12;;;;;;;0.22;0.10;;;;;;;26.16;100.00;101439.69;10349749;28;20121;-77
2023/09/29 11:48:14;;;;;;;0.40;0.25;;;;;;;26.83;100.00;101438.44;10333970;28;20046;-78
2023/09/29 11:53:15;;;;;;;0.00;0.00;;;;;;;26.93;100.00;101449.56;10338407;28;20134;-78
2023/09/29 11:58:17;;;;;;;0.40;0.22;;;;;;;27.02;100.00;101441.31;10331095;28;20408;-77
2023/09/29 12:03:21;;;;;;;0.63;0.35;;;;;;;26.53;100.00;101446.44;10339732;28;20402;-79
2023/09/29 12:08:23;;;;;;;0.10;0.10;;;;;;;26.66;100.00;101440.75;10332359;28;20062;-78
2023/09/29 12:13:25;;;;;;;0.50;0.40;;;;;;;26.45;100.00;101427.34;10332032;28;20165;-79
2023/09/29 12:18:27;;;;;;;0.32;0.10;;;;;;;27.22;100.00;101445.03;10326470;28;20054;-78
2023/09/29 12:23:28;;;;;;;0.60;0.20;;;;;;;27.06;100.00;101444.72;10312136;28;20054;-78
2023/09/29 12:28:30;;;;;;;0.20;0.20;;;;;;;27.60;100.00;101452.53;10342687;28;20050;-78
2023/09/29 12:33:31;;;;;;;0.40;0.38;;;;;;;27.43;100.00;101439.91;10347782;28;20061;-78
2023/09/29 12:38:33;;;;;;;0.63;0.40;;;;;;;27.19;100.00;101448.66;10307847;28;20064;-79
2023/09/29 12:43:35;;;;;;;0.15;0.15;;;;;;;27.20;100.00;101452.16;10320815;28;20070;-79
2023/09/29 12:48:37;;;;;;;0.10;0.00;;;;;;;27.84;100.00;101448.97;10330150;28;20046;-78
2023/09/29 12:53:39;;;;;;;0.63;0.22;;;;;;;26.32;100.00;101452.44;10328543;28;20450;-78
2023/09/29 12:58:41;;;;;;;0.17;0.17;;;;;;;24.95;100.00;101477.28;10328618;28;20042;-81
2023/09/29 13:03:42;;;;;;;0.40;0.30;;;;;;;24.79;100.00;101483.84;10342054;28;20052;-79
2023/09/29 13:08:44;;;;;;;0.50;0.13;;;;;;;24.52;100.00;101483.59;10318312;28;20489;-79
2023/09/29 13:13:46;;;;;;;0.00;0.00;;;;;;;24.57;100.00;101481.69;10328741;28;20149;-79
2023/09/29 13:18:48;;;;;;;0.25;0.25;;;;;;;24.71;100.00;101495.44;10332151;28;20050;-77
2023/09/29 13:23:51;;;;;;;0.47;0.20;;;;;;;25.05;100.00;101508.69;10330201;28;20104;-79
2023/09/29 13:28:52;;;;;;;0.10;0.10;;;;;;;24.55;100.00;101510.72;10346057;28;20077;-78
2023/09/29 13:33:54;;;;;;;0.00;0.00;;;;;;;24.54;100.00;101521.25;10350524;28;20046;-79
2023/09/29 13:38:57;;;;;;;0.28;0.20;;;;;;;24.07;100.00;101535.47;10333422;28;20050;-78
2023/09/29 13:44:00;;;;;;;1.48;0.65;;;;;;;24.30;100.00;101535.84;10332991;28;20134;-79
2023/09/29 13:49:02;;;;;;;0.10;0.10;;;;;;;23.94;100.00;101565.53;10331303;28;20057;-79
2023/09/29 13:54:04;;;;;;;0.10;0.10;;;;;;;24.38;100.00;101584.84;10332976;28;20034;-78
2023/09/29 13:59:06;;;;;;;0.08;0.08;;;;;;;24.14;100.00;101604.63;10338497;28;20065;-78
2023/09/29 14:04:08;;;;;;;0.60;0.40;;;;;;;23.79;100.00;101614.03;10321554;28;20145;-78
2023/09/29 14:09:12;;;;;;;0.55;0.20;;;;;;;23.26;100.00;101630.69;10336899;28;20489;-78
2023/09/29 14:14:19;;;;;;;0.10;0.10;;;;;;;23.31;100.00;101649.03;10353830;28;20077;-77
2023/09/29 14:19:21;;;;;;;0.00;0.00;;;;;;;23.41;100.00;101652.38;10352421;28;20053;-78
2023/09/29 14:24:22;;;;;;;0.00;0.00;;;;;;;23.23;100.00;101657.00;10323578;28;20046;-80
2023/09/29 14:29:24;;;;;;;0.00;0.00;;;;;;;23.18;100.00;101673.75;10338089;28;20042;-79
2023/09/29 14:34:26;;;;;;;0.30;0.10;;;;;;;22.67;100.00;101683.16;10337966;28;20090;-78
2023/09/29 14:39:28;;;;;;;0.00;0.00;;;;;;;23.31;100.00;101706.84;10337487;28;20081;-78
2023/09/29 14:44:29;;;;;;;0.00;0.00;;;;;;;23.32;100.00;101713.84;10337996;28;20069;-78
2023/09/29 14:49:31;;;;;;;0.10;0.10;;;;;;;23.16;100.00;101728.06;10353419;28;20144;-78
2023/09/29 14:54:33;;;;;;;0.10;0.00;;;;;;;23.26;100.00;101740.25;10352464;28;20050;-78
2023/09/29 14:59:35;;;;;;;0.00;0.00;;;;;;;23.27;100.00;101741.97;10351895;28;20049;-78
2023/09/29 15:04:37;;;;;;;0.00;0.00;;;;;;;23.34;100.00;101743.63;10335370;28;20042;-78
2023/09/29 15:09:57;;;;;;;0.43;0.38;;;;;;;22.66;100.00;101752.34;10335917;28;20057;-76
2023/09/29 15:14:59;;;;;;;0.03;0.00;;;;;;;22.87;100.00;101758.22;10335021;28;20046;-77
2023/09/29 15:20:00;;;;;;;0.15;0.05;;;;;;;22.71;100.00;101773.28;10294917;28;20065;-78
2023/09/29 15:25:02;;;;;;;0.00;0.00;;;;;;;23.07;100.00;101792.16;10312863;28;20504;-77
2023/09/29 15:30:05;;;;;;;0.10;0.10;;;;;;;22.84;100.00;101798.53;10334882;28;20045;-78
2023/09/29 15:35:11;;;;;;;0.38;0.38;;;;;;;22.96;100.00;101810.66;10334075;28;20066;-78
2023/09/29 15:40:13;;;;;;;0.00;0.00;;;;;;;22.78;100.00;101820.47;10334122;28;20054;-79
2023/09/29 15:45:21;;;;;;;0.00;0.00;;;;;;;23.51;100.00;101818.75;10334498;28;20042;-78
2023/09/29 15:50:22;;;;;;;3.17;0.70;;;;;;;22.96;100.00;101840.44;10333797;28;20069;-78
2023/09/29 15:55:24;;;;;;;0.10;0.10;;;;;;;23.68;100.00;101845.72;10333900;28;20136;-78
2023/09/29 16:00:26;;;;;;;0.08;0.08;;;;;;;23.29;100.00;101858.47;10333401;28;20053;-78
2023/09/29 16:05:30;;;;;;;0.00;0.00;;;;;;;23.25;100.00;101865.53;10334287;28;20046;-78
2023/09/29 16:10:33;;;;;;;0.00;0.00;;;;;;;23.23;100.00;101874.34;10333598;28;20046;-77
2023/09/29 16:15:35;;;;;;;3.28;0.30;;;;;;;23.22;100.00;101885.72;10333269;28;20074;-79
2023/09/29 16:20:36;;;;;;;0.10;0.00;;;;;;;23.12;100.00;101893.69;10332107;28;20050;-79
2023/09/29 16:25:38;;;;;;;0.00;0.00;;;;;;;23.32;100.00;101903.16;10348908;28;20504;-78
2023/09/29 16:30:40;;;;;;;0.60;0.25;;;;;;;23.52;100.00;101920.44;10332303;28;20096;-78
2023/09/29 16:35:41;;;;;;;0.00;0.00;;;;;;;23.19;100.00;101933.97;10331408;28;20046;-77
2023/09/29 16:40:43;;;;;;;0.10;0.10;;;;;;;23.19;100.00;101943.63;10324304;28;20049;-77
2023/09/29 16:45:45;;;;;;;0.00;0.00;;;;;;;22.28;100.00;101960.94;10333717;28;20050;-79
2023/09/29 16:50:46;;;;;;;0.00;0.00;;;;;;;22.21;100.00;101959.22;10315555;28;20122;-78
2023/09/29 16:55:48;;;;;;;0.00;0.00;;;;;;;21.85;100.00;101976.03;10331927;28;20053;-78
2023/09/29 17:00:50;;;;;;;0.00;0.00;;;;;;;22.09;100.00;101979.38;10331587;28;20054;-78
2023/09/29 17:05:52;;;;;;;0.00;0.00;;;;;;;21.93;100.00;101994.34;10331599;28;20051;-77
2023/09/29 17:10:54;;;;;;;0.03;0.00;;;;;;;21.80;100.00;101998.75;10331907;28;20050;-78
2023/09/29 17:15:57;;;;;;;0.00;0.00;;;;;;;21.61;100.00;102012.81;10331387;28;20046;-79
2023/09/29 17:20:58;;;;;;;0.00;0.00;;;;;;;21.47;100.00;102020.66;10314394;28;20058;-78
2023/09/29 17:26:01;;;;;;;0.35;0.20;;;;;;;21.65;100.00;102025.03;10346288;28;20457;-78
2023/09/29 17:31:02;;;;;;;0.20;0.10;;;;;;;21.47;100.00;102042.53;10352371;28;20050;-78
2023/09/29 17:36:05;;;;;;;1.85;0.55;;;;;;;21.67;100.00;102054.75;10339146;28;20482;-77
2023/09/29 17:41:11;;;;;;;0.00;0.00;;;;;;;21.11;100.00;102061.75;10338737;28;20070;-79
2023/09/29 17:46:12;;;;;;;0.00;0.00;;;;;;;20.86;100.00;102077.44;10355339;28;20125;-78
2023/09/29 17:51:14;;;;;;;0.00;0.00;;;;;;;20.90;100.00;102098.41;10354473;28;20058;-78
2023/09/29 17:56:17;;;;;;;0.00;0.00;;;;;;;20.87;100.00;102108.91;10338253;28;20046;-78
2023/09/29 18:01:18;;;;;;;0.20;0.20;;;;;;;21.00;100.00;102114.16;10321755;28;20050;-78
2023/09/29 18:06:25;;;;;;;1.98;0.20;;;;;;;21.01;100.00;102136.84;10337474;28;20516;-77
2023/09/29 18:11:27;;;;;;;0.00;0.00;;;;;;;20.75;100.00;102140.28;10337468;28;20082;-77
2023/09/29 18:16:29;;;;;;;0.00;0.00;;;;;;;20.57;100.00;102152.41;10337697;28;20479;-77
2023/09/29 18:21:32;;;;;;;0.00;0.00;;;;;;;19.89;100.00;102157.25;10337442;28;20058;-78
2023/09/29 18:26:35;;;;;;;0.10;0.08;;;;;;;20.09;100.00;102174.81;10338748;28;20482;-78
2023/09/29 18:31:37;;;;;;;5.72;0.10;;;;;;;19.79;100.00;102182.44;10339134;28;20078;-77
2023/09/29 18:36:38;;;;;;;0.15;0.15;;;;;;;19.86;100.00;102187.75;10337275;28;20053;-77
2023/09/29 18:41:40;;;;;;;0.30;0.30;;;;;;;19.62;100.00;102190.13;10336221;28;20046;-77
2023/09/29 18:46:42;;;;;;;0.22;0.13;;;;;;;19.47;100.00;102192.63;10336662;28;20050;-77
2023/09/29 18:51:43;;;;;;;0.00;0.00;;;;;;;19.45;100.00;102208.28;10336461;28;20096;-77
2023/09/29 18:56:45;;;;;;;0.00;0.00;;;;;;;19.09;100.00;102224.44;10336523;28;20046;-77
2023/09/29 19:01:47;;;;;;;0.00;0.00;;;;;;;19.10;100.00;102219.22;10336215;28;20046;-77
2023/09/29 19:06:49;;;;;;;0.00;0.00;;;;;;;19.09;100.00;102229.69;10336068;28;20046;-77
2023/09/29 19:11:51;;;;;;;0.20;0.10;;;;;;;19.13;100.00;102242.78;10351986;28;20070;-77
2023/09/29 19:16:53;;;;;;;1.45;0.30;;;;;;;18.96;100.00;102247.78;10351726;28;20046;-77
2023/09/29 19:21:54;;;;;;;0.52;0.52;;;;;;;19.01;100.00;102248.75;10351592;28;20478;-77
2023/09/29 19:26:56;;;;;;;1.25;0.30;;;;;;;18.86;100.00;102253.75;10336399;28;20042;-77
2023/09/29 19:31:58;;;;;;;0.70;0.15;;;;;;;18.69;100.00;102245.69;10334687;28;20101;-77
2023/09/29 19:36:59;;;;;;;0.03;0.03;;;;;;;18.68;100.00;102251.75;10334679;28;20054;-77
2023/09/29 19:42:04;;;;;;;0.05;0.00;;;;;;;18.77;100.00;102253.59;10334666;28;20054;-77
2023/09/29 19:47:05;;;;;;;0.25;0.25;;;;;;;18.81;100.00;102263.22;10333982;28;20101;-76
2023/09/29 19:52:07;;;;;;;0.00;0.00;;;;;;;18.92;100.00;102266.91;10335166;28;20057;-77
2023/09/29 19:57:09;;;;;;;0.10;0.10;;;;;;;18.73;100.00;102264.88;10333836;28;20054;-77
2023/09/29 20:02:11;;;;;;;0.00;0.00;;;;;;;18.51;100.00;102265.44;10333816;28;20051;-77
2023/09/29 20:07:12;;;;;;;0.00;0.00;;;;;;;17.80;100.00;102266.00;10327316;28;20051;-77
2023/09/29 20:12:14;;;;;;;0.35;0.05;;;;;;;18.16;100.00;102265.78;10333339;28;20053;-77
2023/09/29 20:17:19;;;;;;;0.40;0.25;;;;;;;18.04;100.00;102292.53;10341528;28;20046;-77
2023/09/29 20:22:21;;;;;;;0.45;0.20;;;;;;;17.86;100.00;102300.00;10317154;28;20058;-77
2023/09/29 20:27:23;;;;;;;0.20;0.20;;;;;;;17.76;100.00;102299.81;10316609;28;20050;-76
2023/09/29 20:32:24;;;;;;;0.00;0.00;;;;;;;17.56;100.00;102303.78;10332515;28;20078;-77
2023/09/29 20:37:26;;;;;;;0.30;0.22;;;;;;;17.71;100.00;102319.72;10332871;28;20051;-77
2023/09/29 20:42:28;;;;;;;0.00;0.00;;;;;;;17.90;100.00;102325.28;10348126;28;20074;-76
2023/09/29 20:47:30;;;;;;;0.25;0.13;;;;;;;17.77;100.00;102334.59;10332126;28;20050;-77
2023/09/29 20:52:32;;;;;;;0.95;0.40;;;;;;;17.76;100.00;102338.91;10332427;28;20053;-77
2023/09/29 20:57:34;;;;;;;0.05;0.05;;;;;;;17.43;100.00;102334.81;10333503;28;20046;-77
2023/09/29 21:02:36;;;;;;;0.03;0.03;;;;;;;17.41;100.00;102327.81;10331768;28;20058;-77
2023/09/29 21:07:38;;;;;;;0.05;0.03;;;;;;;17.56;100.00;102335.06;10344384;28;20046;-77
2023/09/29 21:12:39;;;;;;;0.10;0.10;;;;;;;17.35;100.00;102341.59;10330194;28;20051;-77
2023/09/29 21:17:41;;;;;;;0.10;0.10;;;;;;;17.07;100.00;102329.69;10322510;28;20126;-77
2023/09/29 21:22:43;;;;;;;3.50;0.43;;;;;;;16.64;100.00;102330.47;10358188;28;20544;-78
2023/09/29 21:27:45;;;;;;;0.00;0.00;;;;;;;16.76;100.00;102335.06;10329942;28;20081;-77
2023/09/29 21:32:48;;;;;;;0.20;0.20;;;;;;;17.18;100.00;102348.16;10348741;28;20074;-77
2023/09/29 21:37:49;;;;;;;1.00;0.70;;;;;;;17.15;100.00;102346.38;10363084;28;20045;-77
2023/09/29 21:42:51;;;;;;;1.30;0.40;;;;;;;16.76;100.00;102361.09;10338854;28;20050;-77
2023/09/29 21:47:53;;;;;;;0.10;0.10;;;;;;;16.99;100.00;102342.56;10379062;28;20482;-77
2023/09/29 21:52:54;;;;;;;2.55;0.15;;;;;;;17.03;100.00;102365.19;10361681;28;20039;-78
2023/09/29 21:57:56;;;;;;;0.43;0.20;;;;;;;16.96;100.00;102365.91;10357053;28;20046;-77
2023/09/29 22:02:58;;;;;;;0.10;0.10;;;;;;;16.72;100.00;102369.66;10356879;28;20038;-78
2023/09/29 22:08:00;;;;;;;0.00;0.00;;;;;;;16.85;100.00;102369.97;10373601;28;20421;-77
2023/09/29 22:13:01;;;;;;;0.00;0.00;;;;;;;16.46;100.00;102369.91;10361957;28;20383;-77
2023/09/29 22:18:03;;;;;;;0.20;0.10;;;;;;;16.06;100.00;102375.81;10360069;28;20145;-78
2023/09/29 22:23:06;;;;;;;0.20;0.20;;;;;;;16.17;100.00;102375.25;10368933;28;20105;-78
2023/09/29 22:28:07;;;;;;;0.88;0.45;;;;;;;16.39;100.00;102380.13;10361329;28;20051;-77
2023/09/29 22:33:09;;;;;;;0.35;0.35;;;;;;;16.48;100.00;102395.97;10379900;28;20042;-78
2023/09/29 22:38:12;;;;;;;0.47;0.45;;;;;;;16.87;100.00;102376.97;10368024;28;20050;-78
2023/09/29 22:43:13;;;;;;;0.32;0.20;;;;;;;16.58;100.00;102379.75;10361341;28;20049;-77
2023/09/29 22:48:15;;;;;;;0.00;0.00;;;;;;;16.16;100.00;102368.28;10373172;28;20054;-77
2023/09/29 22:53:17;;;;;;;0.00;0.00;;;;;;;16.87;100.00;102373.47;10367292;28;20054;-77
2023/09/29 22:58:18;;;;;;;0.00;0.00;;;;;;;16.68;100.00;102367.84;10372051;28;20034;-78